Terminal Aerodrome Forecast
Issued by NWS Milwaukee/Sullivan, WI

Home | Current Version | Previous Version | Text Only | Print | Product List | Glossary On
Versions: 1 2 3 4 5 6 7 8 9 10 11 12 13 14 15 16 17 18 19 20 21 22 23 24 25 26 27 28 29 30 31 32 33 34 35 36 37 38 39 40 41 42 43 44 45 46 47 48 49 50
000
FTUS43 KMKX 032324
TAFMKE
TAF
KMKE 032324Z 0400/0506 05007KT P6SM SCT040 SCT150
     FM040400 VRB03KT P6SM SCT045
     FM040500 VRB03KT 2SM BR SCT060
     FM040700 VRB03KT 3SM BR SCT080
     FM041100 33004KT 2SM BR SCT030
     FM041400 36004KT P6SM SCT080
     FM041700 06005KT P6SM SCT120
     FM050500 00000KT P6SM SCT150=

USA.gov is the U.S. government's official web portal to all federal, state and local government web resources and services.